Columbus, Ohio
Traffic Map
Current Weather Conditions
Columbus, Ohio
Few Clouds
Few Clouds
26°
Feels Like: 26°
Wind Chill: 26° Ceiling: Unl
Heat Index: 26° Visibility: 10mi
Dew Point: 12° Wind: 12mph
Humidity: 42% Direction: 270° (W)
Pressure: 29.93in Gusts: 0mph
Raw Report DataKCMH 012351Z 27010KT 10SM FEW060 26/12 A2993 RMK AO2 SLP130 T02610122 10289 20261 58002
Traffic Incident Summary
Active as of:
Severity:
Category:
InformationThere was an issue retrieving the traffic information for this location. Please try a different location or try again shortly.
Advertisements
Track Severe Weather on mobile